TAF LFKJ
LFKJ 090800Z 0909/1009 28010KT 9999 BKN030 FEW033TCU TEMPO 0909/0911 SHRA FEW033CB BECMG 0911/0913 NSW SCT050 BECMG 0917/0918 05006KT BECMG 1007/1009 RA BKN025 OVC040=
METAR LFKJ
LFKJ 090800Z AUTO 27012G23KT 240V300 9999 3600 RA FEW041/// SCT049/// BKN058/// ///TCU 10/04 Q1004 BECMG NSW=
LFKJ 090730Z AUTO VRB03KT 9999 -RA SCT050/// BKN062/// OVC072/// ///TCU 10/04 Q1004 NOSIG=
LFKJ 090700Z AUTO 25005KT 9999 FEW039/// BKN060/// OVC072/// ///TCU 10/04 Q1003 NOSIG=
LFKJ 090630Z AUTO 25008KT 9999 FEW040/// SCT064/// BKN090/// ///TCU 10/04 Q1003 NOSIG=
LFKJ 090600Z AUTO 27008KT 240V300 9999 FEW039/// SCT064/// ///CB 11/04 Q1003 NOSIG=
WC LFKJ
WS LFKJ
WV LFKJ